sensor_id;sensor_type;location;lat;lon;timestamp;temperature;humidity
78184;DHT22;67442;44.570;18.610;2023-07-20T15:36:13;25.50;52.60
78184;DHT22;67442;44.570;18.610;2023-07-20T15:38:40;25.60;52.60
78184;DHT22;67442;44.570;18.610;2023-07-20T15:41:07;25.60;52.50
78184;DHT22;67442;44.570;18.610;2023-07-20T15:43:34;25.60;52.40
78184;DHT22;67442;44.570;18.610;2023-07-20T15:48:52;25.60;52.30
78184;DHT22;67442;44.570;18.610;2023-07-20T15:51:19;25.60;52.30
78184;DHT22;67442;44.570;18.610;2023-07-20T15:53:46;25.60;52.30
78184;DHT22;67442;44.570;18.610;2023-07-20T15:56:14;25.60;52.30
78184;DHT22;67442;44.570;18.610;2023-07-20T15:58:40;25.60;52.30
78184;DHT22;67442;44.570;18.610;2023-07-20T16:01:08;25.60;52.30
78184;DHT22;67442;44.570;18.610;2023-07-20T16:03:35;25.60;52.20
78184;DHT22;67442;44.570;18.610;2023-07-20T16:06:02;25.60;52.20
78184;DHT22;67442;44.570;18.610;2023-07-20T16:08:33;25.60;52.10
78184;DHT22;67442;44.570;18.610;2023-07-20T16:11:00;25.60;52.20
78184;DHT22;67442;44.570;18.610;2023-07-20T16:13:29;25.60;52.20
78184;DHT22;67442;44.570;18.610;2023-07-20T16:15:55;25.60;52.30
78184;DHT22;67442;44.570;18.610;2023-07-20T16:18:27;25.60;52.40
78184;DHT22;67442;44.570;18.610;2023-07-20T16:20:55;25.60;52.60
78184;DHT22;67442;44.570;18.610;2023-07-20T16:23:22;25.60;52.70
78184;DHT22;67442;44.570;18.610;2023-07-20T16:25:49;25.60;52.90
78184;DHT22;67442;44.570;18.610;2023-07-20T16:28:18;25.60;52.80
78184;DHT22;67442;44.570;18.610;2023-07-20T16:30:47;25.60;52.80
78184;DHT22;67442;44.570;18.610;2023-07-20T16:33:18;25.60;52.70
78184;DHT22;67442;44.570;18.610;2023-07-20T16:35:46;25.60;52.60
78184;DHT22;67442;44.570;18.610;2023-07-20T16:38:13;25.60;52.70
78184;DHT22;67442;44.570;18.610;2023-07-20T16:40:41;25.70;52.70
78184;DHT22;67442;44.570;18.610;2023-07-20T16:43:11;25.70;52.60
78184;DHT22;67442;44.570;18.610;2023-07-20T16:45:39;25.60;52.60
78184;DHT22;67442;44.570;18.610;2023-07-20T16:48:06;25.60;52.60
78184;DHT22;67442;44.570;18.610;2023-07-20T16:50:33;25.70;52.60
78184;DHT22;67442;44.570;18.610;2023-07-20T16:53:01;25.60;52.60
78184;DHT22;67442;44.570;18.610;2023-07-20T16:55:28;25.60;52.60
78184;DHT22;67442;44.570;18.610;2023-07-20T16:57:56;25.60;52.60
78184;DHT22;67442;44.570;18.610;2023-07-20T17:00:23;25.70;52.90
78184;DHT22;67442;44.570;18.610;2023-07-20T17:02:54;25.70;53.10
78184;DHT22;67442;44.570;18.610;2023-07-20T17:05:25;25.70;53.00
78184;DHT22;67442;44.570;18.610;2023-07-20T17:07:53;25.70;52.90
78184;DHT22;67442;44.570;18.610;2023-07-20T17:10:24;25.70;53.10
78184;DHT22;67442;44.570;18.610;2023-07-20T17:12:51;25.70;53.40
78184;DHT22;67442;44.570;18.610;2023-07-20T17:15:18;25.70;53.70
78184;DHT22;67442;44.570;18.610;2023-07-20T17:17:46;25.80;53.80
78184;DHT22;67442;44.570;18.610;2023-07-20T17:20:13;25.70;54.00
78184;DHT22;67442;44.570;18.610;2023-07-20T17:22:41;25.80;54.40
78184;DHT22;67442;44.570;18.610;2023-07-20T17:25:09;25.80;54.70
78184;DHT22;67442;44.570;18.610;2023-07-20T17:27:36;25.80;55.20
78184;DHT22;67442;44.570;18.610;2023-07-20T17:43:17;25.80;54.70
78184;DHT22;67442;44.570;18.610;2023-07-20T17:45:47;25.80;56.60
78184;DHT22;67442;44.570;18.610;2023-07-20T17:48:14;25.90;56.60
78184;DHT22;67442;44.570;18.610;2023-07-20T17:50:41;25.90;56.30
78184;DHT22;67442;44.570;18.610;2023-07-20T17:53:13;25.90;56.20
78184;DHT22;67442;44.570;18.610;2023-07-20T17:55:44;25.90;56.30
78184;DHT22;67442;44.570;18.610;2023-07-20T17:58:24;25.90;56.30
78184;DHT22;67442;44.570;18.610;2023-07-20T18:00:53;25.90;56.40
78184;DHT22;67442;44.570;18.610;2023-07-20T18:03:25;25.90;56.50
78184;DHT22;67442;44.570;18.610;2023-07-20T18:05:53;25.90;56.50
78184;DHT22;67442;44.570;18.610;2023-07-20T18:08:24;25.90;56.60
78184;DHT22;67442;44.570;18.610;2023-07-20T18:11:05;25.90;56.50
78184;DHT22;67442;44.570;18.610;2023-07-20T18:13:32;25.90;56.40
78184;DHT22;67442;44.570;18.610;2023-07-20T18:16:00;25.90;56.50
78184;DHT22;67442;44.570;18.610;2023-07-20T18:18:27;25.90;56.50
78184;DHT22;67442;44.570;18.610;2023-07-20T18:20:54;25.90;57.10
78184;DHT22;67442;44.570;18.610;2023-07-20T18:23:21;25.90;56.50
78184;DHT22;67442;44.570;18.610;2023-07-20T18:25:48;25.90;57.20
78184;DHT22;67442;44.570;18.610;2023-07-20T18:28:16;25.90;56.60
78184;DHT22;67442;44.570;18.610;2023-07-20T18:30:43;25.80;56.40
78184;DHT22;67442;44.570;18.610;2023-07-20T18:33:12;25.80;56.20
78184;DHT22;67442;44.570;18.610;2023-07-20T18:35:39;25.80;56.10
78184;DHT22;67442;44.570;18.610;2023-07-20T18:38:07;25.80;55.70
78184;DHT22;67442;44.570;18.610;2023-07-20T18:40:35;25.80;55.50
78184;DHT22;67442;44.570;18.610;2023-07-20T18:43:05;25.80;55.30
78184;DHT22;67442;44.570;18.610;2023-07-20T18:45:33;25.80;55.10
78184;DHT22;67442;44.570;18.610;2023-07-20T18:48:04;25.80;55.50
78184;DHT22;67442;44.570;18.610;2023-07-20T18:50:31;25.80;56.60
78184;DHT22;67442;44.570;18.610;2023-07-20T18:53:00;25.80;56.20
78184;DHT22;67442;44.570;18.610;2023-07-20T18:55:32;25.80;56.30
78184;DHT22;67442;44.570;18.610;2023-07-20T18:58:01;25.80;56.40
78184;DHT22;67442;44.570;18.610;2023-07-20T19:00:28;25.80;56.50
78184;DHT22;67442;44.570;18.610;2023-07-20T19:02:56;25.80;56.60
78184;DHT22;67442;44.570;18.610;2023-07-20T19:05:23;25.80;56.60
78184;DHT22;67442;44.570;18.610;2023-07-20T19:07:50;25.80;56.50
78184;DHT22;67442;44.570;18.610;2023-07-20T19:10:17;25.80;56.30
78184;DHT22;67442;44.570;18.610;2023-07-20T19:12:44;25.90;56.20
78184;DHT22;67442;44.570;18.610;2023-07-20T19:15:15;25.90;56.00
78184;DHT22;67442;44.570;18.610;2023-07-20T19:17:43;25.80;55.60
78184;DHT22;67442;44.570;18.610;2023-07-20T19:20:12;25.80;55.20
78184;DHT22;67442;44.570;18.610;2023-07-20T19:22:43;25.80;55.30
78184;DHT22;67442;44.570;18.610;2023-07-20T19:25:11;25.80;55.10
78184;DHT22;67442;44.570;18.610;2023-07-20T19:27:42;25.80;55.50
78184;DHT22;67442;44.570;18.610;2023-07-20T19:30:10;25.80;55.50
78184;DHT22;67442;44.570;18.610;2023-07-20T19:32:37;25.80;55.40
78184;DHT22;67442;44.570;18.610;2023-07-20T19:35:09;25.80;55.20
78184;DHT22;67442;44.570;18.610;2023-07-20T19:37:37;25.80;55.30
78184;DHT22;67442;44.570;18.610;2023-07-20T19:40:06;25.80;55.20
78184;DHT22;67442;44.570;18.610;2023-07-20T19:42:35;25.80;55.10
78184;DHT22;67442;44.570;18.610;2023-07-20T19:45:03;25.80;55.00
78184;DHT22;67442;44.570;18.610;2023-07-20T19:47:31;25.80;55.00
78184;DHT22;67442;44.570;18.610;2023-07-20T19:50:01;25.80;54.90
78184;DHT22;67442;44.570;18.610;2023-07-20T19:52:30;25.70;54.80
78184;DHT22;67442;44.570;18.610;2023-07-20T19:54:56;25.70;54.70
78184;DHT22;67442;44.570;18.610;2023-07-20T19:57:24;25.70;54.60
78184;DHT22;67442;44.570;18.610;2023-07-20T19:59:52;25.80;54.70
78184;DHT22;67442;44.570;18.610;2023-07-20T20:02:20;25.70;54.60
78184;DHT22;67442;44.570;18.610;2023-07-20T20:04:47;25.70;54.50
78184;DHT22;67442;44.570;18.610;2023-07-20T20:07:15;25.70;54.50
78184;DHT22;67442;44.570;18.610;2023-07-20T20:09:42;25.70;54.40
78184;DHT22;67442;44.570;18.610;2023-07-20T20:12:10;25.70;54.30
78184;DHT22;67442;44.570;18.610;2023-07-20T20:14:38;25.70;54.30
78184;DHT22;67442;44.570;18.610;2023-07-20T20:17:08;25.70;54.30
78184;DHT22;67442;44.570;18.610;2023-07-20T20:19:36;25.70;54.20
78184;DHT22;67442;44.570;18.610;2023-07-20T20:22:04;25.70;54.20
78184;DHT22;67442;44.570;18.610;2023-07-20T20:24:32;25.70;54.10
78184;DHT22;67442;44.570;18.610;2023-07-20T20:27:06;25.70;54.00
78184;DHT22;67442;44.570;18.610;2023-07-20T20:29:36;25.70;54.00
78184;DHT22;67442;44.570;18.610;2023-07-20T20:32:05;25.70;54.00
78184;DHT22;67442;44.570;18.610;2023-07-20T20:34:33;25.70;53.90
78184;DHT22;67442;44.570;18.610;2023-07-20T20:37:05;25.70;53.80
78184;DHT22;67442;44.570;18.610;2023-07-20T20:39:33;25.60;53.70
78184;DHT22;67442;44.570;18.610;2023-07-20T20:42:00;25.70;53.80
78184;DHT22;67442;44.570;18.610;2023-07-20T20:44:27;25.60;53.70
78184;DHT22;67442;44.570;18.610;2023-07-20T20:46:55;25.60;53.60
78184;DHT22;67442;44.570;18.610;2023-07-20T20:49:31;25.60;53.60
78184;DHT22;67442;44.570;18.610;2023-07-20T20:51:58;25.60;53.70
78184;DHT22;67442;44.570;18.610;2023-07-20T20:54:25;25.60;53.80
78184;DHT22;67442;44.570;18.610;2023-07-20T20:56:51;25.60;54.20
78184;DHT22;67442;44.570;18.610;2023-07-20T20:59:21;25.60;54.40
78184;DHT22;67442;44.570;18.610;2023-07-20T21:01:48;25.70;54.70
78184;DHT22;67442;44.570;18.610;2023-07-20T21:04:16;25.70;54.80
78184;DHT22;67442;44.570;18.610;2023-07-20T21:06:47;25.70;54.80
78184;DHT22;67442;44.570;18.610;2023-07-20T21:09:19;25.80;54.80
78184;DHT22;67442;44.570;18.610;2023-07-20T21:11:46;25.80;54.90
78184;DHT22;67442;44.570;18.610;2023-07-20T21:14:13;25.80;54.90
78184;DHT22;67442;44.570;18.610;2023-07-20T21:16:41;25.80;55.00
78184;DHT22;67442;44.570;18.610;2023-07-20T21:19:08;25.80;55.00
78184;DHT22;67442;44.570;18.610;2023-07-20T21:21:39;25.80;55.00
78184;DHT22;67442;44.570;18.610;2023-07-20T21:24:06;25.90;55.10
78184;DHT22;67442;44.570;18.610;2023-07-20T21:26:34;25.90;55.10
78184;DHT22;67442;44.570;18.610;2023-07-20T21:29:05;25.90;55.10
78184;DHT22;67442;44.570;18.610;2023-07-20T21:31:35;25.90;55.10
78184;DHT22;67442;44.570;18.610;2023-07-20T21:34:03;25.90;55.20
78184;DHT22;67442;44.570;18.610;2023-07-20T21:36:31;26.00;55.30
78184;DHT22;67442;44.570;18.610;2023-07-20T21:38:58;26.00;55.30
78184;DHT22;67442;44.570;18.610;2023-07-20T21:41:26;26.00;55.30
78184;DHT22;67442;44.570;18.610;2023-07-20T21:43:53;26.00;55.40
78184;DHT22;67442;44.570;18.610;2023-07-20T21:46:20;26.00;55.40
78184;DHT22;67442;44.570;18.610;2023-07-20T21:48:48;26.00;55.50
78184;DHT22;67442;44.570;18.610;2023-07-20T21:51:15;26.10;55.50
78184;DHT22;67442;44.570;18.610;2023-07-20T21:53:43;26.10;55.50
78184;DHT22;67442;44.570;18.610;2023-07-20T21:56:14;26.10;55.60
78184;DHT22;67442;44.570;18.610;2023-07-20T21:58:41;26.10;55.60
78184;DHT22;67442;44.570;18.610;2023-07-20T22:01:09;26.10;55.70
78184;DHT22;67442;44.570;18.610;2023-07-20T22:03:36;26.20;55.80
78184;DHT22;67442;44.570;18.610;2023-07-20T22:06:07;26.20;55.80
78184;DHT22;67442;44.570;18.610;2023-07-20T22:08:34;26.20;55.80
78184;DHT22;67442;44.570;18.610;2023-07-20T22:11:06;26.20;55.80
78184;DHT22;67442;44.570;18.610;2023-07-20T22:13:33;26.20;55.90
78184;DHT22;67442;44.570;18.610;2023-07-20T22:16:01;26.20;55.90
78184;DHT22;67442;44.570;18.610;2023-07-20T22:18:29;26.20;55.90
78184;DHT22;67442;44.570;18.610;2023-07-20T22:21:00;26.20;55.90
78184;DHT22;67442;44.570;18.610;2023-07-20T22:23:46;26.20;56.00
78184;DHT22;67442;44.570;18.610;2023-07-20T22:26:14;26.30;56.10
78184;DHT22;67442;44.570;18.610;2023-07-20T22:28:43;26.30;56.10
78184;DHT22;67442;44.570;18.610;2023-07-20T22:31:12;26.30;56.10
78184;DHT22;67442;44.570;18.610;2023-07-20T22:33:39;26.30;56.10
78184;DHT22;67442;44.570;18.610;2023-07-20T22:36:07;26.30;56.20
78184;DHT22;67442;44.570;18.610;2023-07-20T22:38:43;26.30;56.20
78184;DHT22;67442;44.570;18.610;2023-07-20T22:41:10;26.30;56.20
78184;DHT22;67442;44.570;18.610;2023-07-20T22:43:37;26.30;56.30
78184;DHT22;67442;44.570;18.610;2023-07-20T22:46:04;26.30;57.00
78184;DHT22;67442;44.570;18.610;2023-07-20T22:48:32;26.30;56.30
78184;DHT22;67442;44.570;18.610;2023-07-20T22:50:59;26.30;56.40
78184;DHT22;67442;44.570;18.610;2023-07-20T22:53:30;26.30;56.40
78184;DHT22;67442;44.570;18.610;2023-07-20T22:55:57;26.30;56.50
78184;DHT22;67442;44.570;18.610;2023-07-20T22:58:24;26.40;56.60
78184;DHT22;67442;44.570;18.610;2023-07-20T23:00:51;26.40;56.60
78184;DHT22;67442;44.570;18.610;2023-07-20T23:03:19;26.40;56.60
78184;DHT22;67442;44.570;18.610;2023-07-20T23:05:46;26.40;56.70
78184;DHT22;67442;44.570;18.610;2023-07-20T23:08:14;26.40;56.70
78184;DHT22;67442;44.570;18.610;2023-07-20T23:10:41;26.40;56.70
78184;DHT22;67442;44.570;18.610;2023-07-20T23:13:07;26.40;56.80
78184;DHT22;67442;44.570;18.610;2023-07-20T23:15:35;26.40;56.80
78184;DHT22;67442;44.570;18.610;2023-07-20T23:18:05;26.40;56.80
78184;DHT22;67442;44.570;18.610;2023-07-20T23:20:35;26.40;56.90
78184;DHT22;67442;44.570;18.610;2023-07-20T23:23:02;26.40;56.90
78184;DHT22;67442;44.570;18.610;2023-07-20T23:25:34;26.40;57.00
78184;DHT22;67442;44.570;18.610;2023-07-20T23:28:04;26.40;57.00
78184;DHT22;67442;44.570;18.610;2023-07-20T23:30:36;26.40;57.00
78184;DHT22;67442;44.570;18.610;2023-07-20T23:33:04;26.50;57.10
78184;DHT22;67442;44.570;18.610;2023-07-20T23:35:31;26.50;57.10
78184;DHT22;67442;44.570;18.610;2023-07-20T23:38:01;26.50;57.10
78184;DHT22;67442;44.570;18.610;2023-07-20T23:40:29;26.50;57.10
78184;DHT22;67442;44.570;18.610;2023-07-20T23:43:00;26.50;57.10
78184;DHT22;67442;44.570;18.610;2023-07-20T23:45:28;26.50;57.10
78184;DHT22;67442;44.570;18.610;2023-07-20T23:47:55;26.50;57.20
78184;DHT22;67442;44.570;18.610;2023-07-20T23:50:27;26.50;57.20
78184;DHT22;67442;44.570;18.610;2023-07-20T23:52:54;26.50;57.20
78184;DHT22;67442;44.570;18.610;2023-07-20T23:55:25;26.50;57.20
78184;DHT22;67442;44.570;18.610;2023-07-20T23:57:57;26.50;57.30
